Skip Navigation Links Skip Navigation Links

Current Weather

Burlington Muni, Burlington, Wis.

For information only: do not use for flight planning or navigation.
Latest weather
Observation time Saturday, July 20, 2019 10:55 AM CDT
Local time Saturday, July 20, 2019 11:11 AM CDT
Flight conditions Visual Meteorological Conditions
Winds
Wind direction South-Southwest (210°)
Wind speed 13 mph
Wind gusting to 16 mph
Visibility 10 mi.
Sky condition
Ceiling unlimited
Sky clear
Temperature 85°F
Dewpoint 79°F
Altimeter 29.82 in.Hg
Derived measurements
Relative humidity 82%
Heat index 99°F
Density altitude 3035 ft.
Remarks
Fully automated report.
Automated weather observing station with precipitation discriminator.
METAR KBUU 201555Z AUTO 21011G14KT 10SM CLR 30/26 A2982 RMK AO2 T02970263

Settings

Location code

InnerDrive.Weather 4.0.6770.0 Release CLR 4.0.30319.42000
Copyright ©2018 Inner Drive Technology. All rights reserved. Portions Copyright ©1986-2018 David Braverman.

Find weather

Site navigation


Skip Navigation Links

Place info

Page info

PayPal - The safer, easier way to pay online!

Return home.

Copyright ©2019 Inner Drive Technology. Purveyors of fine, hand-crafted computer software. Page printed 2019-07-20T16:11:49 UTC.